sensor_id;sensor_type;location;lat;lon;timestamp;P1;durP1;ratioP1;P2;durP2;ratioP2
545;SDS011;259;53.304;9.816;2023-04-24T00:00:08;4.07;;;3.80;;
545;SDS011;259;53.304;9.816;2023-04-24T00:02:34;3.83;;;3.63;;
545;SDS011;259;53.304;9.816;2023-04-24T00:05:05;3.80;;;3.50;;
545;SDS011;259;53.304;9.816;2023-04-24T00:07:31;4.30;;;4.00;;
545;SDS011;259;53.304;9.816;2023-04-24T00:09:57;3.33;;;3.13;;
545;SDS011;259;53.304;9.816;2023-04-24T00:12:24;3.50;;;3.30;;
545;SDS011;259;53.304;9.816;2023-04-24T00:14:50;4.00;;;3.70;;
545;SDS011;259;53.304;9.816;2023-04-24T00:17:16;5.97;;;4.27;;
545;SDS011;259;53.304;9.816;2023-04-24T00:19:44;4.20;;;3.90;;
545;SDS011;259;53.304;9.816;2023-04-24T00:22:11;4.07;;;3.77;;
545;SDS011;259;53.304;9.816;2023-04-24T00:24:38;4.00;;;3.70;;
545;SDS011;259;53.304;9.816;2023-04-24T00:27:04;4.10;;;3.77;;
545;SDS011;259;53.304;9.816;2023-04-24T00:29:30;4.17;;;3.70;;
545;SDS011;259;53.304;9.816;2023-04-24T00:31:56;4.30;;;3.90;;
545;SDS011;259;53.304;9.816;2023-04-24T00:34:22;3.70;;;3.50;;
545;SDS011;259;53.304;9.816;2023-04-24T00:36:47;3.90;;;3.60;;
545;SDS011;259;53.304;9.816;2023-04-24T00:39:17;3.80;;;3.50;;
545;SDS011;259;53.304;9.816;2023-04-24T00:41:44;3.87;;;3.67;;
545;SDS011;259;53.304;9.816;2023-04-24T00:44:11;3.37;;;3.17;;
545;SDS011;259;53.304;9.816;2023-04-24T00:46:36;3.73;;;3.53;;
545;SDS011;259;53.304;9.816;2023-04-24T00:49:03;4.13;;;3.93;;
545;SDS011;259;53.304;9.816;2023-04-24T00:51:30;4.10;;;3.63;;
545;SDS011;259;53.304;9.816;2023-04-24T00:53:57;3.80;;;3.60;;
545;SDS011;259;53.304;9.816;2023-04-24T00:56:24;3.87;;;3.67;;
545;SDS011;259;53.304;9.816;2023-04-24T00:58:50;3.43;;;3.23;;
545;SDS011;259;53.304;9.816;2023-04-24T01:01:16;3.23;;;3.03;;
545;SDS011;259;53.304;9.816;2023-04-24T01:03:45;3.83;;;3.53;;
545;SDS011;259;53.304;9.816;2023-04-24T01:06:11;3.23;;;3.03;;
545;SDS011;259;53.304;9.816;2023-04-24T01:08:38;3.20;;;3.00;;
545;SDS011;259;53.304;9.816;2023-04-24T01:11:04;2.80;;;2.60;;
545;SDS011;259;53.304;9.816;2023-04-24T01:13:31;3.50;;;3.30;;
545;SDS011;259;53.304;9.816;2023-04-24T01:15:58;3.20;;;3.00;;
545;SDS011;259;53.304;9.816;2023-04-24T01:18:23;3.50;;;3.13;;
545;SDS011;259;53.304;9.816;2023-04-24T01:20:50;3.17;;;2.97;;
545;SDS011;259;53.304;9.816;2023-04-24T01:23:18;3.00;;;2.80;;
545;SDS011;259;53.304;9.816;2023-04-24T01:25:44;3.23;;;3.03;;
545;SDS011;259;53.304;9.816;2023-04-24T01:28:11;3.10;;;2.80;;
545;SDS011;259;53.304;9.816;2023-04-24T01:30:38;2.93;;;2.83;;
545;SDS011;259;53.304;9.816;2023-04-24T01:33:04;2.93;;;2.73;;
545;SDS011;259;53.304;9.816;2023-04-24T01:35:30;2.87;;;2.67;;
545;SDS011;259;53.304;9.816;2023-04-24T01:37:56;3.00;;;2.90;;
545;SDS011;259;53.304;9.816;2023-04-24T01:40:22;2.80;;;2.70;;
545;SDS011;259;53.304;9.816;2023-04-24T01:42:47;3.00;;;2.87;;
545;SDS011;259;53.304;9.816;2023-04-24T01:45:13;3.13;;;2.93;;
545;SDS011;259;53.304;9.816;2023-04-24T01:47:39;2.53;;;2.43;;
545;SDS011;259;53.304;9.816;2023-04-24T01:50:05;2.57;;;2.47;;
545;SDS011;259;53.304;9.816;2023-04-24T01:52:32;2.70;;;2.50;;
545;SDS011;259;53.304;9.816;2023-04-24T01:55:01;2.97;;;2.87;;
545;SDS011;259;53.304;9.816;2023-04-24T01:57:29;2.90;;;2.70;;
545;SDS011;259;53.304;9.816;2023-04-24T01:59:56;2.83;;;2.73;;
545;SDS011;259;53.304;9.816;2023-04-24T02:02:22;3.00;;;2.80;;
545;SDS011;259;53.304;9.816;2023-04-24T02:04:49;2.77;;;2.57;;
545;SDS011;259;53.304;9.816;2023-04-24T02:07:15;2.53;;;2.43;;
545;SDS011;259;53.304;9.816;2023-04-24T02:09:41;2.53;;;2.37;;
545;SDS011;259;53.304;9.816;2023-04-24T02:12:07;2.80;;;2.60;;
545;SDS011;259;53.304;9.816;2023-04-24T02:14:33;2.87;;;2.67;;
545;SDS011;259;53.304;9.816;2023-04-24T02:16:58;2.80;;;2.60;;
545;SDS011;259;53.304;9.816;2023-04-24T02:19:25;2.70;;;2.47;;
545;SDS011;259;53.304;9.816;2023-04-24T02:21:51;2.30;;;2.20;;
545;SDS011;259;53.304;9.816;2023-04-24T02:24:17;2.70;;;2.50;;
545;SDS011;259;53.304;9.816;2023-04-24T02:26:43;2.23;;;2.10;;
545;SDS011;259;53.304;9.816;2023-04-24T02:29:08;2.60;;;2.40;;
545;SDS011;259;53.304;9.816;2023-04-24T02:31:34;2.00;;;1.90;;
545;SDS011;259;53.304;9.816;2023-04-24T02:34:00;2.63;;;2.43;;
545;SDS011;259;53.304;9.816;2023-04-24T02:36:25;2.03;;;1.93;;
545;SDS011;259;53.304;9.816;2023-04-24T02:38:51;2.30;;;2.10;;
545;SDS011;259;53.304;9.816;2023-04-24T02:41:17;1.90;;;1.80;;
545;SDS011;259;53.304;9.816;2023-04-24T02:43:42;1.97;;;1.87;;
545;SDS011;259;53.304;9.816;2023-04-24T02:46:08;2.30;;;2.20;;
545;SDS011;259;53.304;9.816;2023-04-24T02:48:34;2.30;;;2.10;;
545;SDS011;259;53.304;9.816;2023-04-24T02:51:00;2.10;;;2.00;;
545;SDS011;259;53.304;9.816;2023-04-24T02:53:25;2.07;;;1.90;;
545;SDS011;259;53.304;9.816;2023-04-24T02:55:51;1.50;;;1.40;;
545;SDS011;259;53.304;9.816;2023-04-24T02:58:17;1.97;;;1.87;;
545;SDS011;259;53.304;9.816;2023-04-24T03:00:45;1.93;;;1.83;;
545;SDS011;259;53.304;9.816;2023-04-24T03:03:11;1.97;;;1.87;;
545;SDS011;259;53.304;9.816;2023-04-24T03:05:37;1.90;;;1.80;;
545;SDS011;259;53.304;9.816;2023-04-24T03:08:03;2.07;;;1.87;;
545;SDS011;259;53.304;9.816;2023-04-24T03:10:29;1.77;;;1.67;;
545;SDS011;259;53.304;9.816;2023-04-24T03:12:54;1.63;;;1.53;;
545;SDS011;259;53.304;9.816;2023-04-24T03:15:20;1.70;;;1.60;;
545;SDS011;259;53.304;9.816;2023-04-24T03:17:46;1.40;;;1.30;;
545;SDS011;259;53.304;9.816;2023-04-24T03:20:11;1.37;;;1.27;;
545;SDS011;259;53.304;9.816;2023-04-24T03:22:37;1.70;;;1.60;;
545;SDS011;259;53.304;9.816;2023-04-24T03:25:03;1.60;;;1.50;;
545;SDS011;259;53.304;9.816;2023-04-24T03:27:30;1.40;;;1.30;;
545;SDS011;259;53.304;9.816;2023-04-24T03:29:55;1.50;;;1.40;;
545;SDS011;259;53.304;9.816;2023-04-24T03:32:21;1.60;;;1.50;;
545;SDS011;259;53.304;9.816;2023-04-24T03:34:48;1.40;;;1.30;;
545;SDS011;259;53.304;9.816;2023-04-24T03:37:14;1.80;;;1.70;;
545;SDS011;259;53.304;9.816;2023-04-24T03:39:41;1.87;;;1.70;;
545;SDS011;259;53.304;9.816;2023-04-24T03:42:07;1.60;;;1.50;;
545;SDS011;259;53.304;9.816;2023-04-24T03:44:33;1.57;;;1.47;;
545;SDS011;259;53.304;9.816;2023-04-24T03:47:00;1.40;;;1.30;;
545;SDS011;259;53.304;9.816;2023-04-24T03:49:26;1.33;;;1.23;;
545;SDS011;259;53.304;9.816;2023-04-24T03:51:51;2.00;;;1.00;;
545;SDS011;259;53.304;9.816;2023-04-24T03:54:17;1.73;;;1.30;;
545;SDS011;259;53.304;9.816;2023-04-24T03:56:44;1.50;;;1.40;;
545;SDS011;259;53.304;9.816;2023-04-24T03:59:10;1.30;;;1.20;;
545;SDS011;259;53.304;9.816;2023-04-24T04:01:36;1.30;;;1.30;;
545;SDS011;259;53.304;9.816;2023-04-24T04:04:02;1.20;;;1.20;;
545;SDS011;259;53.304;9.816;2023-04-24T04:06:29;1.10;;;1.10;;
545;SDS011;259;53.304;9.816;2023-04-24T04:08:56;1.30;;;1.20;;
545;SDS011;259;53.304;9.816;2023-04-24T04:11:22;1.13;;;1.13;;
545;SDS011;259;53.304;9.816;2023-04-24T04:13:48;1.07;;;1.07;;
545;SDS011;259;53.304;9.816;2023-04-24T04:16:14;1.33;;;1.23;;
545;SDS011;259;53.304;9.816;2023-04-24T04:18:41;1.20;;;1.10;;
545;SDS011;259;53.304;9.816;2023-04-24T04:21:08;1.17;;;1.10;;
545;SDS011;259;53.304;9.816;2023-04-24T04:23:33;1.30;;;1.20;;
545;SDS011;259;53.304;9.816;2023-04-24T04:25:59;1.20;;;1.13;;
545;SDS011;259;53.304;9.816;2023-04-24T04:28:26;1.23;;;1.13;;
545;SDS011;259;53.304;9.816;2023-04-24T04:30:52;1.57;;;1.30;;
545;SDS011;259;53.304;9.816;2023-04-24T04:33:19;0.90;;;0.90;;
545;SDS011;259;53.304;9.816;2023-04-24T04:35:46;1.10;;;1.10;;
545;SDS011;259;53.304;9.816;2023-04-24T04:38:16;0.83;;;0.83;;
545;SDS011;259;53.304;9.816;2023-04-24T04:40:43;0.80;;;0.80;;
545;SDS011;259;53.304;9.816;2023-04-24T04:43:09;1.00;;;0.90;;
545;SDS011;259;53.304;9.816;2023-04-24T04:45:36;0.80;;;0.80;;
545;SDS011;259;53.304;9.816;2023-04-24T04:48:03;0.93;;;0.93;;
545;SDS011;259;53.304;9.816;2023-04-24T04:50:30;1.47;;;1.03;;
545;SDS011;259;53.304;9.816;2023-04-24T04:52:56;0.87;;;0.87;;
545;SDS011;259;53.304;9.816;2023-04-24T04:55:22;1.37;;;1.00;;
545;SDS011;259;53.304;9.816;2023-04-24T04:57:48;1.17;;;1.10;;
545;SDS011;259;53.304;9.816;2023-04-24T05:00:13;0.80;;;0.80;;
545;SDS011;259;53.304;9.816;2023-04-24T05:02:40;2.80;;;1.43;;
545;SDS011;259;53.304;9.816;2023-04-24T05:05:06;0.80;;;0.80;;
545;SDS011;259;53.304;9.816;2023-04-24T05:07:32;1.97;;;1.10;;
545;SDS011;259;53.304;9.816;2023-04-24T05:09:58;1.03;;;1.00;;
545;SDS011;259;53.304;9.816;2023-04-24T05:12:24;0.80;;;0.80;;
545;SDS011;259;53.304;9.816;2023-04-24T05:14:50;1.07;;;1.07;;
545;SDS011;259;53.304;9.816;2023-04-24T05:17:15;1.10;;;0.90;;
545;SDS011;259;53.304;9.816;2023-04-24T05:19:41;1.70;;;0.80;;
545;SDS011;259;53.304;9.816;2023-04-24T05:22:07;0.97;;;0.83;;
545;SDS011;259;53.304;9.816;2023-04-24T05:24:34;0.90;;;0.90;;
545;SDS011;259;53.304;9.816;2023-04-24T05:27:01;1.00;;;1.00;;
545;SDS011;259;53.304;9.816;2023-04-24T05:29:28;0.80;;;0.80;;
545;SDS011;259;53.304;9.816;2023-04-24T05:31:55;1.40;;;0.90;;
545;SDS011;259;53.304;9.816;2023-04-24T05:34:21;1.27;;;0.80;;
545;SDS011;259;53.304;9.816;2023-04-24T05:36:47;1.00;;;1.00;;
545;SDS011;259;53.304;9.816;2023-04-24T05:39:13;0.80;;;0.80;;
545;SDS011;259;53.304;9.816;2023-04-24T05:41:40;0.80;;;0.80;;
545;SDS011;259;53.304;9.816;2023-04-24T05:44:05;0.60;;;0.60;;
545;SDS011;259;53.304;9.816;2023-04-24T05:46:31;0.90;;;0.70;;
545;SDS011;259;53.304;9.816;2023-04-24T05:48:57;0.90;;;0.90;;
545;SDS011;259;53.304;9.816;2023-04-24T05:51:23;1.63;;;1.00;;
545;SDS011;259;53.304;9.816;2023-04-24T05:53:49;0.80;;;0.80;;
545;SDS011;259;53.304;9.816;2023-04-24T05:56:14;1.37;;;1.33;;
545;SDS011;259;53.304;9.816;2023-04-24T05:58:41;1.80;;;0.83;;
545;SDS011;259;53.304;9.816;2023-04-24T06:01:06;0.90;;;0.90;;
545;SDS011;259;53.304;9.816;2023-04-24T06:03:32;0.83;;;0.83;;
545;SDS011;259;53.304;9.816;2023-04-24T06:05:58;0.90;;;0.90;;
545;SDS011;259;53.304;9.816;2023-04-24T06:08:24;1.40;;;0.97;;
545;SDS011;259;53.304;9.816;2023-04-24T06:10:50;1.00;;;0.90;;
545;SDS011;259;53.304;9.816;2023-04-24T06:13:16;1.37;;;1.00;;
545;SDS011;259;53.304;9.816;2023-04-24T06:15:42;1.03;;;1.03;;
545;SDS011;259;53.304;9.816;2023-04-24T06:18:08;1.23;;;1.20;;
545;SDS011;259;53.304;9.816;2023-04-24T06:20:35;1.30;;;1.20;;
545;SDS011;259;53.304;9.816;2023-04-24T06:23:01;1.00;;;1.00;;
545;SDS011;259;53.304;9.816;2023-04-24T06:25:27;1.37;;;1.27;;
545;SDS011;259;53.304;9.816;2023-04-24T06:27:53;0.90;;;0.90;;
545;SDS011;259;53.304;9.816;2023-04-24T06:30:20;1.00;;;1.00;;
545;SDS011;259;53.304;9.816;2023-04-24T06:32:46;1.03;;;1.03;;
545;SDS011;259;53.304;9.816;2023-04-24T06:35:11;0.97;;;0.97;;
545;SDS011;259;53.304;9.816;2023-04-24T06:37:38;1.33;;;1.00;;
545;SDS011;259;53.304;9.816;2023-04-24T06:40:05;1.27;;;1.20;;
545;SDS011;259;53.304;9.816;2023-04-24T06:42:31;1.30;;;1.20;;
545;SDS011;259;53.304;9.816;2023-04-24T06:44:57;1.03;;;1.03;;
545;SDS011;259;53.304;9.816;2023-04-24T06:47:23;1.30;;;1.20;;
545;SDS011;259;53.304;9.816;2023-04-24T06:49:48;1.60;;;1.50;;
545;SDS011;259;53.304;9.816;2023-04-24T06:52:15;1.93;;;1.50;;
545;SDS011;259;53.304;9.816;2023-04-24T06:54:41;1.80;;;1.70;;
545;SDS011;259;53.304;9.816;2023-04-24T06:57:08;1.53;;;1.43;;
545;SDS011;259;53.304;9.816;2023-04-24T06:59:34;1.53;;;1.40;;
545;SDS011;259;53.304;9.816;2023-04-24T07:01:59;1.40;;;1.40;;
545;SDS011;259;53.304;9.816;2023-04-24T07:04:25;2.13;;;2.03;;
545;SDS011;259;53.304;9.816;2023-04-24T07:06:51;1.77;;;1.67;;
545;SDS011;259;53.304;9.816;2023-04-24T07:09:19;1.80;;;1.70;;
545;SDS011;259;53.304;9.816;2023-04-24T07:11:45;1.93;;;1.83;;
545;SDS011;259;53.304;9.816;2023-04-24T07:14:11;2.50;;;2.40;;
545;SDS011;259;53.304;9.816;2023-04-24T07:16:37;2.10;;;2.00;;
545;SDS011;259;53.304;9.816;2023-04-24T07:19:03;2.13;;;2.03;;
545;SDS011;259;53.304;9.816;2023-04-24T07:21:29;2.43;;;2.23;;
545;SDS011;259;53.304;9.816;2023-04-24T07:23:56;2.40;;;2.20;;
545;SDS011;259;53.304;9.816;2023-04-24T07:26:25;2.63;;;2.43;;
545;SDS011;259;53.304;9.816;2023-04-24T07:28:52;2.83;;;2.63;;
545;SDS011;259;53.304;9.816;2023-04-24T07:31:18;2.90;;;2.70;;
545;SDS011;259;53.304;9.816;2023-04-24T07:33:44;2.43;;;2.30;;
545;SDS011;259;53.304;9.816;2023-04-24T07:36:10;2.10;;;1.90;;
545;SDS011;259;53.304;9.816;2023-04-24T07:38:40;2.33;;;2.23;;
545;SDS011;259;53.304;9.816;2023-04-24T07:41:07;3.00;;;2.80;;
545;SDS011;259;53.304;9.816;2023-04-24T07:43:32;3.20;;;3.00;;
545;SDS011;259;53.304;9.816;2023-04-24T07:45:58;2.60;;;2.47;;
545;SDS011;259;53.304;9.816;2023-04-24T07:48:25;3.10;;;3.00;;
545;SDS011;259;53.304;9.816;2023-04-24T07:50:51;2.40;;;2.30;;
545;SDS011;259;53.304;9.816;2023-04-24T07:53:18;3.20;;;3.00;;
545;SDS011;259;53.304;9.816;2023-04-24T07:55:43;3.70;;;3.50;;
545;SDS011;259;53.304;9.816;2023-04-24T07:58:09;3.63;;;3.40;;
545;SDS011;259;53.304;9.816;2023-04-24T08:00:34;3.83;;;3.63;;
545;SDS011;259;53.304;9.816;2023-04-24T08:03:00;3.53;;;3.33;;
545;SDS011;259;53.304;9.816;2023-04-24T08:05:26;3.97;;;3.67;;
545;SDS011;259;53.304;9.816;2023-04-24T08:07:53;4.67;;;4.37;;
545;SDS011;259;53.304;9.816;2023-04-24T08:10:23;4.70;;;4.40;;
545;SDS011;259;53.304;9.816;2023-04-24T08:12:49;4.60;;;4.30;;
545;SDS011;259;53.304;9.816;2023-04-24T08:15:15;4.57;;;4.23;;
545;SDS011;259;53.304;9.816;2023-04-24T08:17:41;4.83;;;4.53;;
545;SDS011;259;53.304;9.816;2023-04-24T08:20:08;4.50;;;4.20;;
545;SDS011;259;53.304;9.816;2023-04-24T08:22:40;5.50;;;5.20;;
545;SDS011;259;53.304;9.816;2023-04-24T08:25:07;4.97;;;4.67;;
545;SDS011;259;53.304;9.816;2023-04-24T08:27:34;4.50;;;4.20;;
545;SDS011;259;53.304;9.816;2023-04-24T08:30:01;4.00;;;3.80;;
545;SDS011;259;53.304;9.816;2023-04-24T08:32:29;4.50;;;4.20;;
545;SDS011;259;53.304;9.816;2023-04-24T08:34:55;3.67;;;3.47;;
545;SDS011;259;53.304;9.816;2023-04-24T08:37:22;4.17;;;3.87;;
545;SDS011;259;53.304;9.816;2023-04-24T08:39:49;3.70;;;3.50;;
545;SDS011;259;53.304;9.816;2023-04-24T08:42:15;3.40;;;3.20;;
545;SDS011;259;53.304;9.816;2023-04-24T08:44:43;4.30;;;4.10;;
545;SDS011;259;53.304;9.816;2023-04-24T08:47:09;3.87;;;3.57;;
545;SDS011;259;53.304;9.816;2023-04-24T08:49:36;3.80;;;3.60;;
545;SDS011;259;53.304;9.816;2023-04-24T08:52:03;4.03;;;3.73;;
545;SDS011;259;53.304;9.816;2023-04-24T08:54:30;4.50;;;4.20;;
545;SDS011;259;53.304;9.816;2023-04-24T08:56:59;3.77;;;3.57;;
545;SDS011;259;53.304;9.816;2023-04-24T08:59:26;4.70;;;4.40;;
545;SDS011;259;53.304;9.816;2023-04-24T09:01:56;3.77;;;3.57;;
545;SDS011;259;53.304;9.816;2023-04-24T09:04:23;3.93;;;3.70;;
545;SDS011;259;53.304;9.816;2023-04-24T09:06:50;4.23;;;3.93;;
545;SDS011;259;53.304;9.816;2023-04-24T09:09:19;3.83;;;3.63;;
545;SDS011;259;53.304;9.816;2023-04-24T09:11:46;4.23;;;4.03;;
545;SDS011;259;53.304;9.816;2023-04-24T09:14:15;4.00;;;3.80;;
545;SDS011;259;53.304;9.816;2023-04-24T09:16:42;4.20;;;4.00;;
545;SDS011;259;53.304;9.816;2023-04-24T09:19:08;4.73;;;4.33;;
545;SDS011;259;53.304;9.816;2023-04-24T09:21:34;4.70;;;4.40;;
545;SDS011;259;53.304;9.816;2023-04-24T09:24:01;4.70;;;4.33;;
545;SDS011;259;53.304;9.816;2023-04-24T09:26:31;5.20;;;4.80;;
545;SDS011;259;53.304;9.816;2023-04-24T09:29:00;5.60;;;5.20;;
545;SDS011;259;53.304;9.816;2023-04-24T09:31:29;4.63;;;4.33;;
545;SDS011;259;53.304;9.816;2023-04-24T09:33:58;4.87;;;4.57;;
545;SDS011;259;53.304;9.816;2023-04-24T09:38:59;4.47;;;4.17;;
545;SDS011;259;53.304;9.816;2023-04-24T09:41:31;5.30;;;5.00;;
545;SDS011;259;53.304;9.816;2023-04-24T09:44:10;5.10;;;4.80;;
545;SDS011;259;53.304;9.816;2023-04-24T09:46:48;5.03;;;4.70;;
545;SDS011;259;53.304;9.816;2023-04-24T09:49:23;5.20;;;4.90;;
545;SDS011;259;53.304;9.816;2023-04-24T09:51:51;6.10;;;5.70;;
545;SDS011;259;53.304;9.816;2023-04-24T09:54:26;5.70;;;5.30;;
545;SDS011;259;53.304;9.816;2023-04-24T09:56:52;5.60;;;5.20;;
545;SDS011;259;53.304;9.816;2023-04-24T09:59:19;6.27;;;5.87;;
545;SDS011;259;53.304;9.816;2023-04-24T10:01:45;5.90;;;5.40;;
545;SDS011;259;53.304;9.816;2023-04-24T10:04:17;6.07;;;5.67;;
545;SDS011;259;53.304;9.816;2023-04-24T10:06:49;6.93;;;6.40;;
545;SDS011;259;53.304;9.816;2023-04-24T10:09:17;6.33;;;5.83;;
545;SDS011;259;53.304;9.816;2023-04-24T10:11:45;6.67;;;6.20;;
545;SDS011;259;53.304;9.816;2023-04-24T10:14:14;5.77;;;5.37;;
545;SDS011;259;53.304;9.816;2023-04-24T10:16:45;7.53;;;7.03;;
545;SDS011;259;53.304;9.816;2023-04-24T10:19:12;7.10;;;6.60;;
545;SDS011;259;53.304;9.816;2023-04-24T10:21:40;6.77;;;6.23;;
545;SDS011;259;53.304;9.816;2023-04-24T10:24:11;7.00;;;6.40;;
545;SDS011;259;53.304;9.816;2023-04-24T10:26:43;6.83;;;6.30;;
545;SDS011;259;53.304;9.816;2023-04-24T10:29:11;6.80;;;6.27;;
545;SDS011;259;53.304;9.816;2023-04-24T10:31:38;6.77;;;6.27;;
545;SDS011;259;53.304;9.816;2023-04-24T10:34:08;6.77;;;6.20;;
545;SDS011;259;53.304;9.816;2023-04-24T10:36:34;6.60;;;6.20;;
545;SDS011;259;53.304;9.816;2023-04-24T10:39:13;6.40;;;6.00;;
545;SDS011;259;53.304;9.816;2023-04-24T10:41:40;6.00;;;5.60;;
545;SDS011;259;53.304;9.816;2023-04-24T10:44:09;4.90;;;4.60;;
545;SDS011;259;53.304;9.816;2023-04-24T10:46:38;6.57;;;6.00;;
545;SDS011;259;53.304;9.816;2023-04-24T10:49:08;6.13;;;5.70;;
545;SDS011;259;53.304;9.816;2023-04-24T10:51:47;5.80;;;5.43;;
545;SDS011;259;53.304;9.816;2023-04-24T10:54:48;5.90;;;5.40;;
545;SDS011;259;53.304;9.816;2023-04-24T10:59:47;5.40;;;5.00;;
545;SDS011;259;53.304;9.816;2023-04-24T11:02:16;6.10;;;5.60;;
545;SDS011;259;53.304;9.816;2023-04-24T11:04:43;6.57;;;6.07;;
545;SDS011;259;53.304;9.816;2023-04-24T11:07:10;5.80;;;5.40;;
545;SDS011;259;53.304;9.816;2023-04-24T11:09:36;5.67;;;5.27;;
545;SDS011;259;53.304;9.816;2023-04-24T11:12:08;5.53;;;5.13;;
545;SDS011;259;53.304;9.816;2023-04-24T11:20:11;6.67;;;6.17;;
545;SDS011;259;53.304;9.816;2023-04-24T11:22:41;5.97;;;5.50;;
545;SDS011;259;53.304;9.816;2023-04-24T11:25:06;6.53;;;6.03;;
545;SDS011;259;53.304;9.816;2023-04-24T11:27:43;5.37;;;4.87;;
545;SDS011;259;53.304;9.816;2023-04-24T11:30:16;6.00;;;5.53;;
545;SDS011;259;53.304;9.816;2023-04-24T11:32:43;5.37;;;4.97;;
545;SDS011;259;53.304;9.816;2023-04-24T11:35:16;5.03;;;4.73;;
545;SDS011;259;53.304;9.816;2023-04-24T11:37:45;5.50;;;5.20;;
545;SDS011;259;53.304;9.816;2023-04-24T11:40:14;5.80;;;5.40;;
545;SDS011;259;53.304;9.816;2023-04-24T11:42:45;5.40;;;4.97;;
545;SDS011;259;53.304;9.816;2023-04-24T11:45:16;5.83;;;5.40;;
545;SDS011;259;53.304;9.816;2023-04-24T11:47:47;5.27;;;4.97;;
545;SDS011;259;53.304;9.816;2023-04-24T11:50:14;5.27;;;4.87;;
545;SDS011;259;53.304;9.816;2023-04-24T11:52:42;5.73;;;5.33;;
545;SDS011;259;53.304;9.816;2023-04-24T11:55:30;4.80;;;4.50;;
545;SDS011;259;53.304;9.816;2023-04-24T11:57:56;5.30;;;4.90;;
545;SDS011;259;53.304;9.816;2023-04-24T12:00:25;5.33;;;5.03;;
545;SDS011;259;53.304;9.816;2023-04-24T12:03:07;5.07;;;4.67;;
545;SDS011;259;53.304;9.816;2023-04-24T12:05:35;5.33;;;4.70;;
545;SDS011;259;53.304;9.816;2023-04-24T12:08:01;6.23;;;5.73;;
545;SDS011;259;53.304;9.816;2023-04-24T12:10:28;5.67;;;5.27;;
545;SDS011;259;53.304;9.816;2023-04-24T12:12:55;5.07;;;4.67;;
545;SDS011;259;53.304;9.816;2023-04-24T12:15:22;4.90;;;4.50;;
545;SDS011;259;53.304;9.816;2023-04-24T12:17:53;4.87;;;4.47;;
545;SDS011;259;53.304;9.816;2023-04-24T12:20:29;4.50;;;4.20;;
545;SDS011;259;53.304;9.816;2023-04-24T12:22:58;5.13;;;4.83;;
545;SDS011;259;53.304;9.816;2023-04-24T12:25:26;5.17;;;4.67;;
545;SDS011;259;53.304;9.816;2023-04-24T12:30:32;3.83;;;3.57;;
545;SDS011;259;53.304;9.816;2023-04-24T12:33:01;4.10;;;3.80;;
545;SDS011;259;53.304;9.816;2023-04-24T12:35:29;3.93;;;3.73;;
545;SDS011;259;53.304;9.816;2023-04-24T12:38:10;4.43;;;4.13;;
545;SDS011;259;53.304;9.816;2023-04-24T12:40:38;3.50;;;3.30;;
545;SDS011;259;53.304;9.816;2023-04-24T12:43:14;3.70;;;3.50;;
545;SDS011;259;53.304;9.816;2023-04-24T12:45:42;4.27;;;3.97;;
545;SDS011;259;53.304;9.816;2023-04-24T12:48:07;3.70;;;3.50;;
545;SDS011;259;53.304;9.816;2023-04-24T12:50:33;3.63;;;3.33;;
545;SDS011;259;53.304;9.816;2023-04-24T12:52:59;3.10;;;2.90;;
545;SDS011;259;53.304;9.816;2023-04-24T12:55:25;3.70;;;3.50;;
545;SDS011;259;53.304;9.816;2023-04-24T12:57:50;3.63;;;3.43;;
545;SDS011;259;53.304;9.816;2023-04-24T13:00:16;3.37;;;3.17;;
545;SDS011;259;53.304;9.816;2023-04-24T13:02:42;3.17;;;2.97;;
545;SDS011;259;53.304;9.816;2023-04-24T13:05:08;3.20;;;3.00;;
545;SDS011;259;53.304;9.816;2023-04-24T13:07:34;3.33;;;3.13;;
545;SDS011;259;53.304;9.816;2023-04-24T13:10:00;3.00;;;2.80;;
545;SDS011;259;53.304;9.816;2023-04-24T13:12:25;2.70;;;2.57;;
545;SDS011;259;53.304;9.816;2023-04-24T13:14:51;3.43;;;3.23;;
545;SDS011;259;53.304;9.816;2023-04-24T13:17:18;3.10;;;2.90;;
545;SDS011;259;53.304;9.816;2023-04-24T13:19:44;3.33;;;3.13;;
545;SDS011;259;53.304;9.816;2023-04-24T13:22:10;3.03;;;2.77;;
545;SDS011;259;53.304;9.816;2023-04-24T13:24:37;3.53;;;3.23;;
545;SDS011;259;53.304;9.816;2023-04-24T13:27:07;3.40;;;3.20;;
545;SDS011;259;53.304;9.816;2023-04-24T13:29:34;2.63;;;2.40;;
545;SDS011;259;53.304;9.816;2023-04-24T13:31:59;2.80;;;2.60;;
545;SDS011;259;53.304;9.816;2023-04-24T13:34:25;2.90;;;2.80;;
545;SDS011;259;53.304;9.816;2023-04-24T13:36:53;3.10;;;2.60;;
545;SDS011;259;53.304;9.816;2023-04-24T13:39:20;3.30;;;3.10;;
545;SDS011;259;53.304;9.816;2023-04-24T13:41:47;2.37;;;2.27;;
545;SDS011;259;53.304;9.816;2023-04-24T13:44:13;2.83;;;2.63;;
545;SDS011;259;53.304;9.816;2023-04-24T13:46:43;3.13;;;2.83;;
545;SDS011;259;53.304;9.816;2023-04-24T13:49:11;2.33;;;2.13;;
545;SDS011;259;53.304;9.816;2023-04-24T13:51:40;2.60;;;2.40;;
545;SDS011;259;53.304;9.816;2023-04-24T13:54:06;2.50;;;2.37;;
545;SDS011;259;53.304;9.816;2023-04-24T13:56:32;2.70;;;2.60;;
545;SDS011;259;53.304;9.816;2023-04-24T13:58:58;2.20;;;2.10;;
545;SDS011;259;53.304;9.816;2023-04-24T14:01:24;3.37;;;2.40;;
545;SDS011;259;53.304;9.816;2023-04-24T14:03:53;2.77;;;2.47;;
545;SDS011;259;53.304;9.816;2023-04-24T14:06:20;3.00;;;2.47;;
545;SDS011;259;53.304;9.816;2023-04-24T14:08:47;2.20;;;2.10;;
545;SDS011;259;53.304;9.816;2023-04-24T14:11:13;2.30;;;2.20;;
545;SDS011;259;53.304;9.816;2023-04-24T14:13:39;2.50;;;2.27;;
545;SDS011;259;53.304;9.816;2023-04-24T14:16:06;2.50;;;2.00;;
545;SDS011;259;53.304;9.816;2023-04-24T14:18:32;2.40;;;2.30;;
545;SDS011;259;53.304;9.816;2023-04-24T14:20:58;2.10;;;2.00;;
545;SDS011;259;53.304;9.816;2023-04-24T14:23:26;2.20;;;1.90;;
545;SDS011;259;53.304;9.816;2023-04-24T14:25:51;2.00;;;1.90;;
545;SDS011;259;53.304;9.816;2023-04-24T14:28:18;2.50;;;2.40;;
545;SDS011;259;53.304;9.816;2023-04-24T14:30:45;2.20;;;2.10;;
545;SDS011;259;53.304;9.816;2023-04-24T14:33:11;2.33;;;2.10;;
545;SDS011;259;53.304;9.816;2023-04-24T14:35:38;1.80;;;1.70;;
545;SDS011;259;53.304;9.816;2023-04-24T14:38:05;2.13;;;2.03;;
545;SDS011;259;53.304;9.816;2023-04-24T14:40:31;2.17;;;2.07;;
545;SDS011;259;53.304;9.816;2023-04-24T14:42:57;2.17;;;2.07;;
545;SDS011;259;53.304;9.816;2023-04-24T14:45:26;3.80;;;2.03;;
545;SDS011;259;53.304;9.816;2023-04-24T14:47:52;2.00;;;1.90;;
545;SDS011;259;53.304;9.816;2023-04-24T14:50:18;2.13;;;2.03;;
545;SDS011;259;53.304;9.816;2023-04-24T14:52:45;2.00;;;1.90;;
545;SDS011;259;53.304;9.816;2023-04-24T14:55:11;2.63;;;2.13;;
545;SDS011;259;53.304;9.816;2023-04-24T14:57:37;1.93;;;1.77;;
545;SDS011;259;53.304;9.816;2023-04-24T15:00:03;9.07;;;3.73;;
545;SDS011;259;53.304;9.816;2023-04-24T15:02:33;15.00;;;2.80;;
545;SDS011;259;53.304;9.816;2023-04-24T15:04:59;2.53;;;1.67;;
545;SDS011;259;53.304;9.816;2023-04-24T15:07:24;7.47;;;2.50;;
545;SDS011;259;53.304;9.816;2023-04-24T15:09:50;4.33;;;2.97;;
545;SDS011;259;53.304;9.816;2023-04-24T15:12:16;3.27;;;2.23;;
545;SDS011;259;53.304;9.816;2023-04-24T15:14:42;4.70;;;2.20;;
545;SDS011;259;53.304;9.816;2023-04-24T15:17:07;4.93;;;2.33;;
545;SDS011;259;53.304;9.816;2023-04-24T15:19:33;3.00;;;2.80;;
545;SDS011;259;53.304;9.816;2023-04-24T15:21:59;3.20;;;2.20;;
545;SDS011;259;53.304;9.816;2023-04-24T15:24:24;11.93;;;3.23;;
545;SDS011;259;53.304;9.816;2023-04-24T15:26:50;11.33;;;3.60;;
545;SDS011;259;53.304;9.816;2023-04-24T15:29:16;9.70;;;2.43;;
545;SDS011;259;53.304;9.816;2023-04-24T15:31:41;6.67;;;2.60;;
545;SDS011;259;53.304;9.816;2023-04-24T15:34:07;15.27;;;3.60;;
545;SDS011;259;53.304;9.816;2023-04-24T15:36:33;7.73;;;2.57;;
545;SDS011;259;53.304;9.816;2023-04-24T15:39:00;11.00;;;3.20;;
545;SDS011;259;53.304;9.816;2023-04-24T15:41:27;11.80;;;2.70;;
545;SDS011;259;53.304;9.816;2023-04-24T15:43:52;11.87;;;2.43;;
545;SDS011;259;53.304;9.816;2023-04-24T15:46:18;9.87;;;3.13;;
545;SDS011;259;53.304;9.816;2023-04-24T15:48:44;6.40;;;2.30;;
545;SDS011;259;53.304;9.816;2023-04-24T15:51:10;5.10;;;2.20;;
545;SDS011;259;53.304;9.816;2023-04-24T15:53:35;8.80;;;2.40;;
545;SDS011;259;53.304;9.816;2023-04-24T15:56:01;4.20;;;2.27;;